sensor_id;sensor_type;location;lat;lon;timestamp;temperature;humidity
1956;DHT22;978;48.314;11.562;2022-07-10T00:00:07;22.00;86.10
1956;DHT22;978;48.314;11.562;2022-07-10T00:02:35;22.00;86.10
1956;DHT22;978;48.314;11.562;2022-07-10T00:05:03;22.00;86.10
1956;DHT22;978;48.314;11.562;2022-07-10T00:07:30;22.00;86.10
1956;DHT22;978;48.314;11.562;2022-07-10T00:09:57;22.00;86.10
1956;DHT22;978;48.314;11.562;2022-07-10T00:12:24;22.00;86.10
1956;DHT22;978;48.314;11.562;2022-07-10T00:14:51;22.00;86.10
1956;DHT22;978;48.314;11.562;2022-07-10T00:17:18;22.00;86.10
1956;DHT22;978;48.314;11.562;2022-07-10T00:19:45;22.00;86.10
1956;DHT22;978;48.314;11.562;2022-07-10T00:22:13;22.00;86.10
1956;DHT22;978;48.314;11.562;2022-07-10T00:24:40;22.00;86.60
1956;DHT22;978;48.314;11.562;2022-07-10T00:27:06;22.00;86.10
1956;DHT22;978;48.314;11.562;2022-07-10T00:29:33;22.00;86.10
1956;DHT22;978;48.314;11.562;2022-07-10T00:32:00;22.00;86.10
1956;DHT22;978;48.314;11.562;2022-07-10T00:34:27;22.00;86.10
1956;DHT22;978;48.314;11.562;2022-07-10T00:36:54;22.00;86.10
1956;DHT22;978;48.314;11.562;2022-07-10T00:39:22;22.00;86.10
1956;DHT22;978;48.314;11.562;2022-07-10T00:41:48;22.00;86.10
1956;DHT22;978;48.314;11.562;2022-07-10T00:44:15;22.00;86.10
1956;DHT22;978;48.314;11.562;2022-07-10T00:46:42;22.00;86.10
1956;DHT22;978;48.314;11.562;2022-07-10T00:49:09;22.00;86.10
1956;DHT22;978;48.314;11.562;2022-07-10T00:51:37;22.00;86.10
1956;DHT22;978;48.314;11.562;2022-07-10T00:54:04;22.00;86.10
1956;DHT22;978;48.314;11.562;2022-07-10T00:56:33;22.00;86.10
1956;DHT22;978;48.314;11.562;2022-07-10T00:59:00;22.00;86.10
1956;DHT22;978;48.314;11.562;2022-07-10T01:01:27;22.00;86.10
1956;DHT22;978;48.314;11.562;2022-07-10T01:03:53;22.00;86.10
1956;DHT22;978;48.314;11.562;2022-07-10T01:06:20;22.00;86.10
1956;DHT22;978;48.314;11.562;2022-07-10T01:08:47;22.00;86.10
1956;DHT22;978;48.314;11.562;2022-07-10T01:11:15;22.00;86.10
1956;DHT22;978;48.314;11.562;2022-07-10T01:13:43;22.00;86.10
1956;DHT22;978;48.314;11.562;2022-07-10T01:16:10;22.00;86.10
1956;DHT22;978;48.314;11.562;2022-07-10T01:18:37;22.00;86.10
1956;DHT22;978;48.314;11.562;2022-07-10T01:21:05;22.00;86.10
1956;DHT22;978;48.314;11.562;2022-07-10T01:23:32;22.00;86.10
1956;DHT22;978;48.314;11.562;2022-07-10T01:26:02;22.00;86.10
1956;DHT22;978;48.314;11.562;2022-07-10T01:28:30;22.00;86.10
1956;DHT22;978;48.314;11.562;2022-07-10T01:30:57;22.00;86.10
1956;DHT22;978;48.314;11.562;2022-07-10T01:33:24;22.00;86.10
1956;DHT22;978;48.314;11.562;2022-07-10T01:35:51;22.00;86.10
1956;DHT22;978;48.314;11.562;2022-07-10T01:38:19;22.00;86.10
1956;DHT22;978;48.314;11.562;2022-07-10T01:40:46;22.00;86.10
1956;DHT22;978;48.314;11.562;2022-07-10T01:43:12;22.00;86.60
1956;DHT22;978;48.314;11.562;2022-07-10T01:45:39;22.00;86.10
1956;DHT22;978;48.314;11.562;2022-07-10T01:48:06;22.00;86.10
1956;DHT22;978;48.314;11.562;2022-07-10T01:50:33;22.00;86.10
1956;DHT22;978;48.314;11.562;2022-07-10T01:53:00;22.00;86.10
1956;DHT22;978;48.314;11.562;2022-07-10T01:55:28;22.00;86.10
1956;DHT22;978;48.314;11.562;2022-07-10T01:57:55;22.00;86.10
1956;DHT22;978;48.314;11.562;2022-07-10T02:00:21;22.00;86.10
1956;DHT22;978;48.314;11.562;2022-07-10T02:02:49;22.00;86.10
1956;DHT22;978;48.314;11.562;2022-07-10T02:05:30;22.00;86.70
1956;DHT22;978;48.314;11.562;2022-07-10T02:07:57;22.00;86.10
1956;DHT22;978;48.314;11.562;2022-07-10T02:10:25;22.00;86.10
1956;DHT22;978;48.314;11.562;2022-07-10T02:12:53;22.00;86.10
1956;DHT22;978;48.314;11.562;2022-07-10T02:15:19;22.00;86.10
1956;DHT22;978;48.314;11.562;2022-07-10T02:17:46;22.00;86.10
1956;DHT22;978;48.314;11.562;2022-07-10T02:20:13;22.00;86.10
1956;DHT22;978;48.314;11.562;2022-07-10T02:22:40;22.00;86.10
1956;DHT22;978;48.314;11.562;2022-07-10T02:25:07;22.00;86.10
1956;DHT22;978;48.314;11.562;2022-07-10T02:27:34;22.00;86.10
1956;DHT22;978;48.314;11.562;2022-07-10T02:30:03;22.00;86.10
1956;DHT22;978;48.314;11.562;2022-07-10T02:32:30;22.00;86.10
1956;DHT22;978;48.314;11.562;2022-07-10T02:34:56;22.00;86.10
1956;DHT22;978;48.314;11.562;2022-07-10T02:37:23;22.00;86.10
1956;DHT22;978;48.314;11.562;2022-07-10T02:39:50;22.00;86.10
1956;DHT22;978;48.314;11.562;2022-07-10T02:42:17;22.00;86.10
1956;DHT22;978;48.314;11.562;2022-07-10T02:44:44;22.00;86.10
1956;DHT22;978;48.314;11.562;2022-07-10T02:47:12;22.00;86.10
1956;DHT22;978;48.314;11.562;2022-07-10T02:49:39;22.00;86.10
1956;DHT22;978;48.314;11.562;2022-07-10T02:52:06;22.00;86.10
1956;DHT22;978;48.314;11.562;2022-07-10T02:54:33;22.00;86.10
1956;DHT22;978;48.314;11.562;2022-07-10T02:56:59;22.00;86.10
1956;DHT22;978;48.314;11.562;2022-07-10T02:59:26;22.00;86.10
1956;DHT22;978;48.314;11.562;2022-07-10T03:01:53;22.00;86.10
1956;DHT22;978;48.314;11.562;2022-07-10T03:04:21;22.00;86.10
1956;DHT22;978;48.314;11.562;2022-07-10T03:06:48;22.00;86.10
1956;DHT22;978;48.314;11.562;2022-07-10T03:09:14;22.00;86.10
1956;DHT22;978;48.314;11.562;2022-07-10T03:11:41;22.00;86.10
1956;DHT22;978;48.314;11.562;2022-07-10T03:14:08;22.00;86.10
1956;DHT22;978;48.314;11.562;2022-07-10T03:16:35;22.00;86.10
1956;DHT22;978;48.314;11.562;2022-07-10T03:19:02;22.00;86.10
1956;DHT22;978;48.314;11.562;2022-07-10T03:21:30;22.00;86.10
1956;DHT22;978;48.314;11.562;2022-07-10T03:23:57;22.00;86.10
1956;DHT22;978;48.314;11.562;2022-07-10T03:26:24;22.00;86.10
1956;DHT22;978;48.314;11.562;2022-07-10T03:28:50;22.00;86.10
1956;DHT22;978;48.314;11.562;2022-07-10T03:31:17;22.00;86.10
1956;DHT22;978;48.314;11.562;2022-07-10T03:33:44;22.00;86.10
1956;DHT22;978;48.314;11.562;2022-07-10T03:36:11;22.00;86.10
1956;DHT22;978;48.314;11.562;2022-07-10T03:38:40;22.00;86.10
1956;DHT22;978;48.314;11.562;2022-07-10T03:41:06;21.90;86.10
1956;DHT22;978;48.314;11.562;2022-07-10T03:43:33;22.00;86.10
1956;DHT22;978;48.314;11.562;2022-07-10T03:46:00;22.00;86.10
1956;DHT22;978;48.314;11.562;2022-07-10T03:48:27;22.00;86.10
1956;DHT22;978;48.314;11.562;2022-07-10T03:50:53;22.00;86.10
1956;DHT22;978;48.314;11.562;2022-07-10T03:53:20;22.00;86.10
1956;DHT22;978;48.314;11.562;2022-07-10T03:55:48;22.00;86.10
1956;DHT22;978;48.314;11.562;2022-07-10T03:58:15;22.00;86.10
1956;DHT22;978;48.314;11.562;2022-07-10T04:00:41;22.00;86.10
1956;DHT22;978;48.314;11.562;2022-07-10T04:03:09;22.00;86.10
1956;DHT22;978;48.314;11.562;2022-07-10T04:05:36;22.00;86.20
1956;DHT22;978;48.314;11.562;2022-07-10T04:08:04;22.00;86.20
1956;DHT22;978;48.314;11.562;2022-07-10T04:10:31;22.00;86.10
1956;DHT22;978;48.314;11.562;2022-07-10T04:12:59;22.00;86.10
1956;DHT22;978;48.314;11.562;2022-07-10T04:15:26;22.00;86.10
1956;DHT22;978;48.314;11.562;2022-07-10T04:17:53;22.00;86.10
1956;DHT22;978;48.314;11.562;2022-07-10T04:20:21;22.00;86.20
1956;DHT22;978;48.314;11.562;2022-07-10T04:22:48;22.00;86.20
1956;DHT22;978;48.314;11.562;2022-07-10T04:25:15;22.00;86.10
1956;DHT22;978;48.314;11.562;2022-07-10T04:27:42;22.00;86.20
1956;DHT22;978;48.314;11.562;2022-07-10T04:30:11;22.00;86.20
1956;DHT22;978;48.314;11.562;2022-07-10T04:32:37;22.00;86.10
1956;DHT22;978;48.314;11.562;2022-07-10T04:35:05;22.00;86.20
1956;DHT22;978;48.314;11.562;2022-07-10T04:37:32;22.00;86.20
1956;DHT22;978;48.314;11.562;2022-07-10T04:39:59;22.00;86.20
1956;DHT22;978;48.314;11.562;2022-07-10T04:42:26;22.00;86.10
1956;DHT22;978;48.314;11.562;2022-07-10T04:44:53;22.00;86.70
1956;DHT22;978;48.314;11.562;2022-07-10T04:47:21;22.00;86.20
1956;DHT22;978;48.314;11.562;2022-07-10T04:49:48;22.00;86.20
1956;DHT22;978;48.314;11.562;2022-07-10T04:52:15;22.00;86.20
1956;DHT22;978;48.314;11.562;2022-07-10T04:54:42;22.00;86.20
1956;DHT22;978;48.314;11.562;2022-07-10T04:57:09;22.00;86.20
1956;DHT22;978;48.314;11.562;2022-07-10T04:59:35;22.00;86.20
1956;DHT22;978;48.314;11.562;2022-07-10T05:02:02;22.00;86.20
1956;DHT22;978;48.314;11.562;2022-07-10T05:04:31;22.00;86.10
1956;DHT22;978;48.314;11.562;2022-07-10T05:06:57;22.00;86.10
1956;DHT22;978;48.314;11.562;2022-07-10T05:09:24;22.00;86.20
1956;DHT22;978;48.314;11.562;2022-07-10T05:11:51;22.00;86.20
1956;DHT22;978;48.314;11.562;2022-07-10T05:14:18;22.00;86.20
1956;DHT22;978;48.314;11.562;2022-07-10T05:16:44;22.00;86.20
1956;DHT22;978;48.314;11.562;2022-07-10T05:19:11;22.00;86.20
1956;DHT22;978;48.314;11.562;2022-07-10T05:21:39;22.00;86.20
1956;DHT22;978;48.314;11.562;2022-07-10T05:24:06;22.00;86.20
1956;DHT22;978;48.314;11.562;2022-07-10T05:26:33;22.00;86.20
1956;DHT22;978;48.314;11.562;2022-07-10T05:29:01;22.00;86.20
1956;DHT22;978;48.314;11.562;2022-07-10T05:31:28;22.00;86.20
1956;DHT22;978;48.314;11.562;2022-07-10T05:33:55;22.00;86.20
1956;DHT22;978;48.314;11.562;2022-07-10T05:36:22;22.00;86.20
1956;DHT22;978;48.314;11.562;2022-07-10T05:38:50;22.00;86.20
1956;DHT22;978;48.314;11.562;2022-07-10T05:41:17;22.00;86.20
1956;DHT22;978;48.314;11.562;2022-07-10T05:43:43;22.00;86.20
1956;DHT22;978;48.314;11.562;2022-07-10T05:46:10;22.00;86.20
1956;DHT22;978;48.314;11.562;2022-07-10T05:48:37;21.90;86.10
1956;DHT22;978;48.314;11.562;2022-07-10T05:51:04;22.00;86.20
1956;DHT22;978;48.314;11.562;2022-07-10T05:53:31;22.00;86.20
1956;DHT22;978;48.314;11.562;2022-07-10T05:56:01;22.00;86.20
1956;DHT22;978;48.314;11.562;2022-07-10T05:58:28;22.00;86.20
1956;DHT22;978;48.314;11.562;2022-07-10T06:00:55;21.90;86.10
1956;DHT22;978;48.314;11.562;2022-07-10T06:03:21;22.00;86.20
1956;DHT22;978;48.314;11.562;2022-07-10T06:05:48;22.00;86.80
1956;DHT22;978;48.314;11.562;2022-07-10T06:08:15;22.00;86.20
1956;DHT22;978;48.314;11.562;2022-07-10T06:10:42;22.00;86.20
1956;DHT22;978;48.314;11.562;2022-07-10T06:13:11;22.00;86.20
1956;DHT22;978;48.314;11.562;2022-07-10T06:15:39;22.00;86.20
1956;DHT22;978;48.314;11.562;2022-07-10T06:18:05;22.00;86.20
1956;DHT22;978;48.314;11.562;2022-07-10T06:20:32;21.90;86.10
1956;DHT22;978;48.314;11.562;2022-07-10T06:22:59;22.00;86.20
1956;DHT22;978;48.314;11.562;2022-07-10T06:25:26;22.00;86.20
1956;DHT22;978;48.314;11.562;2022-07-10T06:27:53;22.00;86.20
1956;DHT22;978;48.314;11.562;2022-07-10T06:30:21;22.00;86.20
1956;DHT22;978;48.314;11.562;2022-07-10T06:32:48;22.00;86.20
1956;DHT22;978;48.314;11.562;2022-07-10T06:35:15;22.00;86.10
1956;DHT22;978;48.314;11.562;2022-07-10T06:37:41;22.00;86.10
1956;DHT22;978;48.314;11.562;2022-07-10T06:40:11;22.00;86.10
1956;DHT22;978;48.314;11.562;2022-07-10T06:42:39;22.00;86.10
1956;DHT22;978;48.314;11.562;2022-07-10T06:45:07;22.00;86.00
1956;DHT22;978;48.314;11.562;2022-07-10T06:47:35;22.00;86.00
1956;DHT22;978;48.314;11.562;2022-07-10T06:50:19;22.00;86.00
1956;DHT22;978;48.314;11.562;2022-07-10T06:52:47;22.00;85.90
1956;DHT22;978;48.314;11.562;2022-07-10T06:55:14;22.00;85.90
1956;DHT22;978;48.314;11.562;2022-07-10T06:57:41;22.00;85.90
1956;DHT22;978;48.314;11.562;2022-07-10T07:00:09;22.00;86.00
1956;DHT22;978;48.314;11.562;2022-07-10T07:02:38;22.00;86.10
1956;DHT22;978;48.314;11.562;2022-07-10T07:05:06;22.00;86.00
1956;DHT22;978;48.314;11.562;2022-07-10T07:07:33;22.00;86.00
1956;DHT22;978;48.314;11.562;2022-07-10T07:10:00;22.00;85.90
1956;DHT22;978;48.314;11.562;2022-07-10T07:12:27;22.00;85.80
1956;DHT22;978;48.314;11.562;2022-07-10T07:14:53;22.00;85.80
1956;DHT22;978;48.314;11.562;2022-07-10T07:17:20;21.90;85.70
1956;DHT22;978;48.314;11.562;2022-07-10T07:19:55;22.00;85.70
1956;DHT22;978;48.314;11.562;2022-07-10T07:22:39;21.90;85.70
1956;DHT22;978;48.314;11.562;2022-07-10T07:25:24;21.90;85.50
1956;DHT22;978;48.314;11.562;2022-07-10T07:27:51;21.90;85.50
1956;DHT22;978;48.314;11.562;2022-07-10T07:30:17;21.90;85.40
1956;DHT22;978;48.314;11.562;2022-07-10T07:32:46;22.00;85.40
1956;DHT22;978;48.314;11.562;2022-07-10T07:35:15;21.90;85.30
1956;DHT22;978;48.314;11.562;2022-07-10T07:37:43;21.90;85.30
1956;DHT22;978;48.314;11.562;2022-07-10T07:40:12;22.00;85.40
1956;DHT22;978;48.314;11.562;2022-07-10T07:42:41;21.90;85.30
1956;DHT22;978;48.314;11.562;2022-07-10T07:45:09;22.00;85.30
1956;DHT22;978;48.314;11.562;2022-07-10T07:47:43;21.90;85.20
1956;DHT22;978;48.314;11.562;2022-07-10T07:50:10;21.90;85.10
1956;DHT22;978;48.314;11.562;2022-07-10T07:52:38;21.90;84.90
1956;DHT22;978;48.314;11.562;2022-07-10T07:55:06;21.90;84.70
1956;DHT22;978;48.314;11.562;2022-07-10T07:57:33;22.00;84.60
1956;DHT22;978;48.314;11.562;2022-07-10T08:00:00;21.90;84.20
1956;DHT22;978;48.314;11.562;2022-07-10T08:02:26;21.90;84.00
1956;DHT22;978;48.314;11.562;2022-07-10T08:04:53;22.00;83.80
1956;DHT22;978;48.314;11.562;2022-07-10T08:07:20;21.90;83.60
1956;DHT22;978;48.314;11.562;2022-07-10T08:09:48;22.00;83.40
1956;DHT22;978;48.314;11.562;2022-07-10T08:12:15;21.90;83.30
1956;DHT22;978;48.314;11.562;2022-07-10T08:14:42;21.90;83.30
1956;DHT22;978;48.314;11.562;2022-07-10T08:17:10;21.90;83.20
1956;DHT22;978;48.314;11.562;2022-07-10T08:19:37;21.90;83.30
1956;DHT22;978;48.314;11.562;2022-07-10T08:22:04;22.00;83.30
1956;DHT22;978;48.314;11.562;2022-07-10T08:24:31;22.00;83.30
1956;DHT22;978;48.314;11.562;2022-07-10T08:26:59;22.00;83.30
1956;DHT22;978;48.314;11.562;2022-07-10T08:29:26;22.00;83.60
1956;DHT22;978;48.314;11.562;2022-07-10T08:31:52;21.90;83.40
1956;DHT22;978;48.314;11.562;2022-07-10T08:34:19;21.90;83.20
1956;DHT22;978;48.314;11.562;2022-07-10T08:36:46;21.90;83.10
1956;DHT22;978;48.314;11.562;2022-07-10T08:39:12;22.00;83.20
1956;DHT22;978;48.314;11.562;2022-07-10T08:41:42;21.90;83.00
1956;DHT22;978;48.314;11.562;2022-07-10T08:44:12;21.90;83.00
1956;DHT22;978;48.314;11.562;2022-07-10T08:46:40;21.90;82.90
1956;DHT22;978;48.314;11.562;2022-07-10T08:49:09;21.90;82.80
1956;DHT22;978;48.314;11.562;2022-07-10T08:51:40;21.90;82.70
1956;DHT22;978;48.314;11.562;2022-07-10T08:54:08;22.00;82.50
1956;DHT22;978;48.314;11.562;2022-07-10T08:56:35;22.00;82.40
1956;DHT22;978;48.314;11.562;2022-07-10T08:59:03;21.90;82.20
1956;DHT22;978;48.314;11.562;2022-07-10T09:01:31;21.90;83.50
1956;DHT22;978;48.314;11.562;2022-07-10T09:03:59;21.90;82.10
1956;DHT22;978;48.314;11.562;2022-07-10T09:06:27;21.90;82.10
1956;DHT22;978;48.314;11.562;2022-07-10T09:08:59;22.00;81.80
1956;DHT22;978;48.314;11.562;2022-07-10T09:11:26;21.90;81.70
1956;DHT22;978;48.314;11.562;2022-07-10T09:13:56;21.90;81.70
1956;DHT22;978;48.314;11.562;2022-07-10T09:16:23;22.00;81.50
1956;DHT22;978;48.314;11.562;2022-07-10T09:18:52;22.00;81.30
1956;DHT22;978;48.314;11.562;2022-07-10T09:21:19;22.00;81.70
1956;DHT22;978;48.314;11.562;2022-07-10T09:23:46;21.90;81.50
1956;DHT22;978;48.314;11.562;2022-07-10T09:26:13;21.90;80.90
1956;DHT22;978;48.314;11.562;2022-07-10T09:28:40;21.90;81.20
1956;DHT22;978;48.314;11.562;2022-07-10T09:31:07;21.90;81.00
1956;DHT22;978;48.314;11.562;2022-07-10T09:33:34;22.00;80.80
1956;DHT22;978;48.314;11.562;2022-07-10T09:36:05;22.00;81.50
1956;DHT22;978;48.314;11.562;2022-07-10T09:38:50;21.90;82.90
1956;DHT22;978;48.314;11.562;2022-07-10T09:41:18;21.90;82.30
1956;DHT22;978;48.314;11.562;2022-07-10T09:43:48;21.90;80.70
1956;DHT22;978;48.314;11.562;2022-07-10T09:46:15;21.90;80.60
1956;DHT22;978;48.314;11.562;2022-07-10T09:48:42;21.90;81.50
1956;DHT22;978;48.314;11.562;2022-07-10T09:51:11;22.00;80.40
1956;DHT22;978;48.314;11.562;2022-07-10T09:53:39;21.90;81.50
1956;DHT22;978;48.314;11.562;2022-07-10T09:56:07;22.00;82.90
1956;DHT22;978;48.314;11.562;2022-07-10T09:58:34;21.90;83.30
1956;DHT22;978;48.314;11.562;2022-07-10T10:01:03;21.90;83.40
1956;DHT22;978;48.314;11.562;2022-07-10T10:03:35;22.00;81.50
1956;DHT22;978;48.314;11.562;2022-07-10T10:06:03;21.90;80.60
1956;DHT22;978;48.314;11.562;2022-07-10T10:08:39;21.90;80.50
1956;DHT22;978;48.314;11.562;2022-07-10T10:11:13;22.00;82.20
1956;DHT22;978;48.314;11.562;2022-07-10T10:13:41;21.90;83.00
1956;DHT22;978;48.314;11.562;2022-07-10T10:16:10;22.00;83.50
1956;DHT22;978;48.314;11.562;2022-07-10T10:18:37;22.00;83.60
1956;DHT22;978;48.314;11.562;2022-07-10T10:21:25;22.00;83.60
1956;DHT22;978;48.314;11.562;2022-07-10T10:23:54;21.90;83.60
1956;DHT22;978;48.314;11.562;2022-07-10T10:26:21;21.90;83.60
1956;DHT22;978;48.314;11.562;2022-07-10T10:28:50;22.00;83.60
1956;DHT22;978;48.314;11.562;2022-07-10T10:31:18;21.90;83.60
1956;DHT22;978;48.314;11.562;2022-07-10T10:33:46;22.00;83.70
1956;DHT22;978;48.314;11.562;2022-07-10T10:36:42;22.00;83.70
1956;DHT22;978;48.314;11.562;2022-07-10T10:39:09;21.90;83.60
1956;DHT22;978;48.314;11.562;2022-07-10T10:41:39;22.00;83.60
1956;DHT22;978;48.314;11.562;2022-07-10T10:44:24;22.00;83.60
1956;DHT22;978;48.314;11.562;2022-07-10T10:46:56;21.90;83.60
1956;DHT22;978;48.314;11.562;2022-07-10T10:49:27;21.90;83.60
1956;DHT22;978;48.314;11.562;2022-07-10T10:52:13;21.90;84.20
1956;DHT22;978;48.314;11.562;2022-07-10T10:55:01;21.90;83.60
1956;DHT22;978;48.314;11.562;2022-07-10T10:57:39;21.90;83.60
1956;DHT22;978;48.314;11.562;2022-07-10T11:00:12;22.00;83.70
1956;DHT22;978;48.314;11.562;2022-07-10T11:02:40;22.00;83.70
1956;DHT22;978;48.314;11.562;2022-07-10T11:05:39;22.00;83.70
1956;DHT22;978;48.314;11.562;2022-07-10T11:08:08;21.90;83.70
1956;DHT22;978;48.314;11.562;2022-07-10T11:10:39;21.90;83.70
1956;DHT22;978;48.314;11.562;2022-07-10T11:13:07;21.90;83.80
1956;DHT22;978;48.314;11.562;2022-07-10T11:15:36;21.90;83.70
1956;DHT22;978;48.314;11.562;2022-07-10T11:18:04;22.00;83.80
1956;DHT22;978;48.314;11.562;2022-07-10T11:20:33;21.90;83.80
1956;DHT22;978;48.314;11.562;2022-07-10T11:25:51;22.00;83.90
1956;DHT22;978;48.314;11.562;2022-07-10T11:28:36;21.90;83.80
1956;DHT22;978;48.314;11.562;2022-07-10T11:31:07;21.90;83.80
1956;DHT22;978;48.314;11.562;2022-07-10T11:33:40;21.90;83.80
1956;DHT22;978;48.314;11.562;2022-07-10T11:36:13;22.00;83.90
1956;DHT22;978;48.314;11.562;2022-07-10T11:38:41;22.00;83.90
1956;DHT22;978;48.314;11.562;2022-07-10T11:41:16;22.00;84.00
1956;DHT22;978;48.314;11.562;2022-07-10T11:43:48;22.00;84.00
1956;DHT22;978;48.314;11.562;2022-07-10T11:46:15;21.90;83.90
1956;DHT22;978;48.314;11.562;2022-07-10T11:48:42;21.90;83.90
1956;DHT22;978;48.314;11.562;2022-07-10T11:51:18;22.00;84.00
1956;DHT22;978;48.314;11.562;2022-07-10T11:53:54;21.90;84.00
1956;DHT22;978;48.314;11.562;2022-07-10T11:56:22;21.90;84.00
1956;DHT22;978;48.314;11.562;2022-07-10T11:58:59;22.00;84.10
1956;DHT22;978;48.314;11.562;2022-07-10T12:01:28;22.00;84.10
1956;DHT22;978;48.314;11.562;2022-07-10T12:03:59;22.00;84.10
1956;DHT22;978;48.314;11.562;2022-07-10T12:06:28;21.90;84.10
1956;DHT22;978;48.314;11.562;2022-07-10T12:08:55;22.00;84.20
1956;DHT22;978;48.314;11.562;2022-07-10T12:11:24;21.90;84.10
1956;DHT22;978;48.314;11.562;2022-07-10T12:13:51;21.90;84.20
1956;DHT22;978;48.314;11.562;2022-07-10T12:16:20;21.90;84.20
1956;DHT22;978;48.314;11.562;2022-07-10T12:18:48;21.90;84.20
1956;DHT22;978;48.314;11.562;2022-07-10T12:21:16;22.00;84.30
1956;DHT22;978;48.314;11.562;2022-07-10T12:23:46;22.00;84.30
1956;DHT22;978;48.314;11.562;2022-07-10T12:26:14;22.00;84.30
1956;DHT22;978;48.314;11.562;2022-07-10T12:28:51;22.00;84.30
1956;DHT22;978;48.314;11.562;2022-07-10T12:31:22;22.00;84.40
1956;DHT22;978;48.314;11.562;2022-07-10T12:33:51;21.90;84.30
1956;DHT22;978;48.314;11.562;2022-07-10T12:36:18;21.90;84.30
1956;DHT22;978;48.314;11.562;2022-07-10T12:38:53;22.00;84.40
1956;DHT22;978;48.314;11.562;2022-07-10T12:41:20;22.00;84.40
1956;DHT22;978;48.314;11.562;2022-07-10T12:43:51;21.90;84.30
1956;DHT22;978;48.314;11.562;2022-07-10T12:46:20;21.90;84.30
1956;DHT22;978;48.314;11.562;2022-07-10T12:49:03;21.90;84.30
1956;DHT22;978;48.314;11.562;2022-07-10T12:51:32;21.90;84.30
1956;DHT22;978;48.314;11.562;2022-07-10T12:53:59;21.90;84.20
1956;DHT22;978;48.314;11.562;2022-07-10T12:56:30;22.00;84.30
1956;DHT22;978;48.314;11.562;2022-07-10T12:58:59;21.90;84.20
1956;DHT22;978;48.314;11.562;2022-07-10T13:01:27;22.00;84.20
1956;DHT22;978;48.314;11.562;2022-07-10T13:03:58;21.90;84.10
1956;DHT22;978;48.314;11.562;2022-07-10T13:06:26;22.00;84.10
1956;DHT22;978;48.314;11.562;2022-07-10T13:08:53;21.90;84.10
1956;DHT22;978;48.314;11.562;2022-07-10T13:11:20;21.90;84.00
1956;DHT22;978;48.314;11.562;2022-07-10T13:13:47;22.00;84.10
1956;DHT22;978;48.314;11.562;2022-07-10T13:16:15;21.90;83.90
1956;DHT22;978;48.314;11.562;2022-07-10T13:18:43;22.00;83.90
1956;DHT22;978;48.314;11.562;2022-07-10T13:21:10;21.90;83.90
1956;DHT22;978;48.314;11.562;2022-07-10T13:23:37;21.90;83.90
1956;DHT22;978;48.314;11.562;2022-07-10T13:26:05;21.90;83.90
1956;DHT22;978;48.314;11.562;2022-07-10T13:28:32;21.90;83.90
1956;DHT22;978;48.314;11.562;2022-07-10T13:30:59;21.90;83.80
1956;DHT22;978;48.314;11.562;2022-07-10T13:33:28;21.90;83.80
1956;DHT22;978;48.314;11.562;2022-07-10T13:35:54;22.00;83.80
1956;DHT22;978;48.314;11.562;2022-07-10T13:38:21;21.90;83.80
1956;DHT22;978;48.314;11.562;2022-07-10T13:40:50;21.90;83.80
1956;DHT22;978;48.314;11.562;2022-07-10T13:43:17;22.00;83.80
1956;DHT22;978;48.314;11.562;2022-07-10T13:45:46;21.90;83.80
1956;DHT22;978;48.314;11.562;2022-07-10T13:48:15;21.90;83.80
1956;DHT22;978;48.314;11.562;2022-07-10T13:50:44;21.90;83.80
1956;DHT22;978;48.314;11.562;2022-07-10T13:53:12;21.90;83.80
1956;DHT22;978;48.314;11.562;2022-07-10T13:55:40;21.90;83.80
1956;DHT22;978;48.314;11.562;2022-07-10T13:58:06;21.90;83.80
1956;DHT22;978;48.314;11.562;2022-07-10T14:00:34;21.90;83.80
1956;DHT22;978;48.314;11.562;2022-07-10T14:03:01;21.90;83.80
1956;DHT22;978;48.314;11.562;2022-07-10T14:05:28;22.00;83.90
1956;DHT22;978;48.314;11.562;2022-07-10T14:07:56;22.00;83.90
1956;DHT22;978;48.314;11.562;2022-07-10T14:10:23;21.90;83.80
1956;DHT22;978;48.314;11.562;2022-07-10T14:12:50;22.00;83.90
1956;DHT22;978;48.314;11.562;2022-07-10T14:15:18;21.90;83.90
1956;DHT22;978;48.314;11.562;2022-07-10T14:17:45;22.00;84.00
1956;DHT22;978;48.314;11.562;2022-07-10T14:20:12;21.90;83.90
1956;DHT22;978;48.314;11.562;2022-07-10T14:22:38;21.90;83.90
1956;DHT22;978;48.314;11.562;2022-07-10T14:25:08;22.00;84.00
1956;DHT22;978;48.314;11.562;2022-07-10T14:27:35;21.90;84.00
1956;DHT22;978;48.314;11.562;2022-07-10T14:30:02;22.00;84.00
1956;DHT22;978;48.314;11.562;2022-07-10T14:32:30;21.90;84.00
1956;DHT22;978;48.314;11.562;2022-07-10T14:34:56;22.00;84.10
1956;DHT22;978;48.314;11.562;2022-07-10T14:37:23;21.90;84.60
1956;DHT22;978;48.314;11.562;2022-07-10T14:39:50;21.90;84.10
1956;DHT22;978;48.314;11.562;2022-07-10T14:42:18;21.90;84.10
1956;DHT22;978;48.314;11.562;2022-07-10T14:44:45;22.00;84.20
1956;DHT22;978;48.314;11.562;2022-07-10T14:47:12;22.00;84.20
1956;DHT22;978;48.314;11.562;2022-07-10T14:49:40;21.90;84.10
1956;DHT22;978;48.314;11.562;2022-07-10T14:52:07;21.90;84.20
1956;DHT22;978;48.314;11.562;2022-07-10T14:54:34;21.90;84.20
1956;DHT22;978;48.314;11.562;2022-07-10T14:57:00;21.90;84.20
1956;DHT22;978;48.314;11.562;2022-07-10T14:59:29;22.00;84.30
1956;DHT22;978;48.314;11.562;2022-07-10T15:01:55;22.00;84.30
1956;DHT22;978;48.314;11.562;2022-07-10T15:04:22;21.90;84.30
1956;DHT22;978;48.314;11.562;2022-07-10T15:06:49;21.90;84.30
1956;DHT22;978;48.314;11.562;2022-07-10T15:09:15;21.90;84.30
1956;DHT22;978;48.314;11.562;2022-07-10T15:11:42;21.90;84.30
1956;DHT22;978;48.314;11.562;2022-07-10T15:14:09;21.90;84.30
1956;DHT22;978;48.314;11.562;2022-07-10T15:16:38;22.00;85.00
1956;DHT22;978;48.314;11.562;2022-07-10T15:19:04;21.90;84.40
1956;DHT22;978;48.314;11.562;2022-07-10T15:21:32;21.90;84.40
1956;DHT22;978;48.314;11.562;2022-07-10T15:23:59;21.90;84.40
1956;DHT22;978;48.314;11.562;2022-07-10T15:26:26;21.90;84.40
1956;DHT22;978;48.314;11.562;2022-07-10T15:28:53;21.90;84.40
1956;DHT22;978;48.314;11.562;2022-07-10T15:31:20;22.00;84.50
1956;DHT22;978;48.314;11.562;2022-07-10T15:33:49;22.00;84.50
1956;DHT22;978;48.314;11.562;2022-07-10T15:36:15;21.90;84.50
1956;DHT22;978;48.314;11.562;2022-07-10T15:38:44;21.90;84.50
1956;DHT22;978;48.314;11.562;2022-07-10T15:41:11;21.90;84.50
1956;DHT22;978;48.314;11.562;2022-07-10T15:43:38;22.00;84.60
1956;DHT22;978;48.314;11.562;2022-07-10T15:46:05;21.90;84.50
1956;DHT22;978;48.314;11.562;2022-07-10T15:48:32;22.00;84.60
1956;DHT22;978;48.314;11.562;2022-07-10T15:51:00;21.90;84.60
1956;DHT22;978;48.314;11.562;2022-07-10T15:53:27;21.90;85.20
1956;DHT22;978;48.314;11.562;2022-07-10T15:55:53;21.90;84.60
1956;DHT22;978;48.314;11.562;2022-07-10T15:58:20;22.00;84.60
1956;DHT22;978;48.314;11.562;2022-07-10T16:00:47;21.90;84.70
1956;DHT22;978;48.314;11.562;2022-07-10T16:03:14;21.90;84.70
1956;DHT22;978;48.314;11.562;2022-07-10T16:05:40;22.00;84.70
1956;DHT22;978;48.314;11.562;2022-07-10T16:08:08;22.00;84.70
1956;DHT22;978;48.314;11.562;2022-07-10T16:10:35;21.90;84.70